sensor_id;sensor_type;location;lat;lon;timestamp;temperature;humidity
25554;DHT22;13446;50.926;5.332;2023-04-25T00:00:24;10.70;99.90
25554;DHT22;13446;50.926;5.332;2023-04-25T00:02:50;10.70;99.90
25554;DHT22;13446;50.926;5.332;2023-04-25T00:05:16;10.80;99.90
25554;DHT22;13446;50.926;5.332;2023-04-25T00:07:41;10.80;99.90
25554;DHT22;13446;50.926;5.332;2023-04-25T00:10:08;10.70;99.90
25554;DHT22;13446;50.926;5.332;2023-04-25T00:12:34;10.80;99.90
25554;DHT22;13446;50.926;5.332;2023-04-25T00:14:59;10.70;99.90
25554;DHT22;13446;50.926;5.332;2023-04-25T00:17:25;10.70;99.90
25554;DHT22;13446;50.926;5.332;2023-04-25T00:19:52;10.80;99.90
25554;DHT22;13446;50.926;5.332;2023-04-25T00:22:17;10.80;99.90
25554;DHT22;13446;50.926;5.332;2023-04-25T00:24:43;10.70;99.90
25554;DHT22;13446;50.926;5.332;2023-04-25T00:27:09;10.60;99.90
25554;DHT22;13446;50.926;5.332;2023-04-25T00:29:34;10.70;99.90
25554;DHT22;13446;50.926;5.332;2023-04-25T00:32:00;10.70;99.90
25554;DHT22;13446;50.926;5.332;2023-04-25T00:34:26;10.70;99.90
25554;DHT22;13446;50.926;5.332;2023-04-25T00:36:51;10.70;99.90
25554;DHT22;13446;50.926;5.332;2023-04-25T00:39:17;10.80;99.90
25554;DHT22;13446;50.926;5.332;2023-04-25T00:41:42;10.70;99.90
25554;DHT22;13446;50.926;5.332;2023-04-25T00:44:08;10.50;99.90
25554;DHT22;13446;50.926;5.332;2023-04-25T00:46:36;10.50;99.90
25554;DHT22;13446;50.926;5.332;2023-04-25T00:49:02;10.40;99.90
25554;DHT22;13446;50.926;5.332;2023-04-25T00:51:27;10.50;99.90
25554;DHT22;13446;50.926;5.332;2023-04-25T00:53:53;10.40;99.90
25554;DHT22;13446;50.926;5.332;2023-04-25T00:56:19;10.40;99.90
25554;DHT22;13446;50.926;5.332;2023-04-25T00:58:45;10.30;99.90
25554;DHT22;13446;50.926;5.332;2023-04-25T01:01:11;10.20;99.90
25554;DHT22;13446;50.926;5.332;2023-04-25T01:03:37;10.20;99.90
25554;DHT22;13446;50.926;5.332;2023-04-25T01:06:09;10.30;99.90
25554;DHT22;13446;50.926;5.332;2023-04-25T01:08:35;10.40;99.90
25554;DHT22;13446;50.926;5.332;2023-04-25T01:11:01;10.30;99.90
25554;DHT22;13446;50.926;5.332;2023-04-25T01:13:26;10.40;99.90
25554;DHT22;13446;50.926;5.332;2023-04-25T01:15:52;10.40;99.90
25554;DHT22;13446;50.926;5.332;2023-04-25T01:18:18;10.40;99.90
25554;DHT22;13446;50.926;5.332;2023-04-25T01:20:44;10.40;99.90
25554;DHT22;13446;50.926;5.332;2023-04-25T01:23:11;10.30;99.90
25554;DHT22;13446;50.926;5.332;2023-04-25T01:25:37;10.30;99.90
25554;DHT22;13446;50.926;5.332;2023-04-25T01:28:02;10.30;99.90
25554;DHT22;13446;50.926;5.332;2023-04-25T01:30:28;10.30;99.90
25554;DHT22;13446;50.926;5.332;2023-04-25T01:32:54;10.30;99.90
25554;DHT22;13446;50.926;5.332;2023-04-25T01:35:20;10.40;99.90
25554;DHT22;13446;50.926;5.332;2023-04-25T01:37:47;10.40;99.90
25554;DHT22;13446;50.926;5.332;2023-04-25T01:40:12;10.40;99.90
25554;DHT22;13446;50.926;5.332;2023-04-25T01:42:39;10.40;99.90
25554;DHT22;13446;50.926;5.332;2023-04-25T01:45:05;10.30;99.90
25554;DHT22;13446;50.926;5.332;2023-04-25T01:47:31;10.40;99.90
25554;DHT22;13446;50.926;5.332;2023-04-25T01:49:57;10.40;99.90
25554;DHT22;13446;50.926;5.332;2023-04-25T01:52:24;10.40;99.90
25554;DHT22;13446;50.926;5.332;2023-04-25T01:54:49;10.30;99.90
25554;DHT22;13446;50.926;5.332;2023-04-25T01:57:15;10.30;99.90
25554;DHT22;13446;50.926;5.332;2023-04-25T01:59:41;10.40;99.90
25554;DHT22;13446;50.926;5.332;2023-04-25T02:02:07;10.50;99.90
25554;DHT22;13446;50.926;5.332;2023-04-25T02:04:33;10.50;99.90
25554;DHT22;13446;50.926;5.332;2023-04-25T02:06:58;10.50;99.90
25554;DHT22;13446;50.926;5.332;2023-04-25T02:09:24;10.40;99.90
25554;DHT22;13446;50.926;5.332;2023-04-25T02:11:50;10.20;99.90
25554;DHT22;13446;50.926;5.332;2023-04-25T02:14:15;10.30;99.90
25554;DHT22;13446;50.926;5.332;2023-04-25T02:16:41;10.20;99.90
25554;DHT22;13446;50.926;5.332;2023-04-25T02:19:09;10.10;99.90
25554;DHT22;13446;50.926;5.332;2023-04-25T02:21:35;10.10;99.90
25554;DHT22;13446;50.926;5.332;2023-04-25T02:24:01;10.10;99.90
25554;DHT22;13446;50.926;5.332;2023-04-25T02:26:26;10.20;99.90
25554;DHT22;13446;50.926;5.332;2023-04-25T02:28:52;10.00;99.90
25554;DHT22;13446;50.926;5.332;2023-04-25T02:31:18;10.00;99.90
25554;DHT22;13446;50.926;5.332;2023-04-25T02:33:43;10.00;99.90
25554;DHT22;13446;50.926;5.332;2023-04-25T02:36:09;10.00;99.90
25554;DHT22;13446;50.926;5.332;2023-04-25T02:38:34;10.10;99.90
25554;DHT22;13446;50.926;5.332;2023-04-25T02:41:00;10.10;99.90
25554;DHT22;13446;50.926;5.332;2023-04-25T02:43:26;10.10;99.90
25554;DHT22;13446;50.926;5.332;2023-04-25T02:45:51;10.00;99.90
25554;DHT22;13446;50.926;5.332;2023-04-25T02:48:17;10.00;99.90
25554;DHT22;13446;50.926;5.332;2023-04-25T02:50:42;10.00;99.90
25554;DHT22;13446;50.926;5.332;2023-04-25T02:53:08;10.00;99.90
25554;DHT22;13446;50.926;5.332;2023-04-25T02:55:34;10.00;99.90
25554;DHT22;13446;50.926;5.332;2023-04-25T02:57:59;9.90;99.90
25554;DHT22;13446;50.926;5.332;2023-04-25T03:00:25;9.90;99.90
25554;DHT22;13446;50.926;5.332;2023-04-25T03:02:50;10.00;99.90
25554;DHT22;13446;50.926;5.332;2023-04-25T03:05:16;10.10;99.90
25554;DHT22;13446;50.926;5.332;2023-04-25T03:07:42;10.10;99.90
25554;DHT22;13446;50.926;5.332;2023-04-25T03:10:09;10.20;99.90
25554;DHT22;13446;50.926;5.332;2023-04-25T03:12:35;10.00;99.90
25554;DHT22;13446;50.926;5.332;2023-04-25T03:15:00;10.10;99.90
25554;DHT22;13446;50.926;5.332;2023-04-25T03:17:26;10.10;99.90
25554;DHT22;13446;50.926;5.332;2023-04-25T03:19:51;10.10;99.90
25554;DHT22;13446;50.926;5.332;2023-04-25T03:22:17;10.10;99.90
25554;DHT22;13446;50.926;5.332;2023-04-25T03:24:42;10.10;99.90
25554;DHT22;13446;50.926;5.332;2023-04-25T03:27:08;10.10;99.90
25554;DHT22;13446;50.926;5.332;2023-04-25T03:29:34;10.10;99.90
25554;DHT22;13446;50.926;5.332;2023-04-25T03:31:59;9.90;99.90
25554;DHT22;13446;50.926;5.332;2023-04-25T03:34:25;9.90;99.90
25554;DHT22;13446;50.926;5.332;2023-04-25T03:36:51;10.00;99.90
25554;DHT22;13446;50.926;5.332;2023-04-25T03:39:16;10.00;99.90
25554;DHT22;13446;50.926;5.332;2023-04-25T03:41:42;10.10;99.90
25554;DHT22;13446;50.926;5.332;2023-04-25T03:44:07;10.10;99.90
25554;DHT22;13446;50.926;5.332;2023-04-25T03:46:33;10.00;99.90
25554;DHT22;13446;50.926;5.332;2023-04-25T03:48:58;9.90;99.90
25554;DHT22;13446;50.926;5.332;2023-04-25T03:51:24;9.80;99.90
25554;DHT22;13446;50.926;5.332;2023-04-25T03:53:51;9.80;99.90
25554;DHT22;13446;50.926;5.332;2023-04-25T03:56:17;9.80;99.90
25554;DHT22;13446;50.926;5.332;2023-04-25T03:58:42;10.00;99.90
25554;DHT22;13446;50.926;5.332;2023-04-25T04:01:08;10.00;99.90
25554;DHT22;13446;50.926;5.332;2023-04-25T04:03:34;10.00;99.90
25554;DHT22;13446;50.926;5.332;2023-04-25T04:06:01;10.10;99.90
25554;DHT22;13446;50.926;5.332;2023-04-25T04:08:27;10.00;99.90
25554;DHT22;13446;50.926;5.332;2023-04-25T04:10:52;9.90;99.90
25554;DHT22;13446;50.926;5.332;2023-04-25T04:13:18;9.70;99.90
25554;DHT22;13446;50.926;5.332;2023-04-25T04:15:43;9.70;99.90
25554;DHT22;13446;50.926;5.332;2023-04-25T04:18:09;9.60;99.90
25554;DHT22;13446;50.926;5.332;2023-04-25T04:20:35;9.40;99.90
25554;DHT22;13446;50.926;5.332;2023-04-25T04:23:00;9.30;99.90
25554;DHT22;13446;50.926;5.332;2023-04-25T04:25:26;9.20;99.90
25554;DHT22;13446;50.926;5.332;2023-04-25T04:27:52;9.10;99.90
25554;DHT22;13446;50.926;5.332;2023-04-25T04:30:21;9.10;99.90
25554;DHT22;13446;50.926;5.332;2023-04-25T04:32:46;9.10;99.90
25554;DHT22;13446;50.926;5.332;2023-04-25T04:35:14;8.90;99.90
25554;DHT22;13446;50.926;5.332;2023-04-25T04:37:39;9.10;99.90
25554;DHT22;13446;50.926;5.332;2023-04-25T04:40:05;9.10;99.90
25554;DHT22;13446;50.926;5.332;2023-04-25T04:42:32;9.20;99.90
25554;DHT22;13446;50.926;5.332;2023-04-25T04:45:00;9.20;99.90
25554;DHT22;13446;50.926;5.332;2023-04-25T04:47:26;9.30;99.90
25554;DHT22;13446;50.926;5.332;2023-04-25T04:49:56;9.30;99.90
25554;DHT22;13446;50.926;5.332;2023-04-25T04:52:21;9.30;99.90
25554;DHT22;13446;50.926;5.332;2023-04-25T04:54:47;9.40;99.90
25554;DHT22;13446;50.926;5.332;2023-04-25T04:57:13;9.40;99.90
25554;DHT22;13446;50.926;5.332;2023-04-25T04:59:38;9.40;99.90
25554;DHT22;13446;50.926;5.332;2023-04-25T05:02:04;9.40;99.90
25554;DHT22;13446;50.926;5.332;2023-04-25T05:04:29;9.50;99.90
25554;DHT22;13446;50.926;5.332;2023-04-25T05:06:55;9.60;99.90
25554;DHT22;13446;50.926;5.332;2023-04-25T05:09:21;9.40;99.90
25554;DHT22;13446;50.926;5.332;2023-04-25T05:11:51;9.50;99.90
25554;DHT22;13446;50.926;5.332;2023-04-25T05:14:16;9.50;99.90
25554;DHT22;13446;50.926;5.332;2023-04-25T05:16:43;9.50;99.90
25554;DHT22;13446;50.926;5.332;2023-04-25T05:19:08;9.60;99.90
25554;DHT22;13446;50.926;5.332;2023-04-25T05:21:34;9.60;99.90
25554;DHT22;13446;50.926;5.332;2023-04-25T05:24:00;9.60;99.90
25554;DHT22;13446;50.926;5.332;2023-04-25T05:26:25;9.60;99.90
25554;DHT22;13446;50.926;5.332;2023-04-25T05:28:51;9.60;99.90
25554;DHT22;13446;50.926;5.332;2023-04-25T05:31:16;9.80;99.90
25554;DHT22;13446;50.926;5.332;2023-04-25T05:33:42;9.70;99.90
25554;DHT22;13446;50.926;5.332;2023-04-25T05:36:08;9.70;99.90
25554;DHT22;13446;50.926;5.332;2023-04-25T05:38:33;9.90;99.90
25554;DHT22;13446;50.926;5.332;2023-04-25T05:40:59;9.90;99.90
25554;DHT22;13446;50.926;5.332;2023-04-25T05:43:24;9.90;99.90
25554;DHT22;13446;50.926;5.332;2023-04-25T05:45:50;9.90;99.90
25554;DHT22;13446;50.926;5.332;2023-04-25T05:48:15;10.10;99.90
25554;DHT22;13446;50.926;5.332;2023-04-25T05:50:41;10.30;99.90
25554;DHT22;13446;50.926;5.332;2023-04-25T05:53:06;10.30;99.90
25554;DHT22;13446;50.926;5.332;2023-04-25T05:55:32;10.30;99.90
25554;DHT22;13446;50.926;5.332;2023-04-25T05:57:57;10.20;99.90
25554;DHT22;13446;50.926;5.332;2023-04-25T06:00:23;10.20;99.90
25554;DHT22;13446;50.926;5.332;2023-04-25T06:02:50;10.10;99.90
25554;DHT22;13446;50.926;5.332;2023-04-25T06:05:16;10.20;99.90
25554;DHT22;13446;50.926;5.332;2023-04-25T06:07:41;10.20;99.90
25554;DHT22;13446;50.926;5.332;2023-04-25T06:10:07;10.20;99.90
25554;DHT22;13446;50.926;5.332;2023-04-25T06:12:33;10.40;99.90
25554;DHT22;13446;50.926;5.332;2023-04-25T06:14:59;10.30;99.90
25554;DHT22;13446;50.926;5.332;2023-04-25T06:17:25;10.40;99.90
25554;DHT22;13446;50.926;5.332;2023-04-25T06:19:50;10.40;99.90
25554;DHT22;13446;50.926;5.332;2023-04-25T06:22:16;10.10;99.90
25554;DHT22;13446;50.926;5.332;2023-04-25T06:24:42;10.00;99.90
25554;DHT22;13446;50.926;5.332;2023-04-25T06:27:07;10.20;99.90
25554;DHT22;13446;50.926;5.332;2023-04-25T06:29:33;10.20;99.90
25554;DHT22;13446;50.926;5.332;2023-04-25T06:32:05;10.20;99.90
25554;DHT22;13446;50.926;5.332;2023-04-25T06:34:30;10.10;99.90
25554;DHT22;13446;50.926;5.332;2023-04-25T06:36:56;10.10;99.90
25554;DHT22;13446;50.926;5.332;2023-04-25T06:39:21;10.10;99.90
25554;DHT22;13446;50.926;5.332;2023-04-25T06:41:48;10.20;99.90
25554;DHT22;13446;50.926;5.332;2023-04-25T06:44:14;10.30;99.90
25554;DHT22;13446;50.926;5.332;2023-04-25T06:46:40;10.70;99.90
25554;DHT22;13446;50.926;5.332;2023-04-25T06:49:06;10.50;99.90
25554;DHT22;13446;50.926;5.332;2023-04-25T06:51:31;10.60;99.90
25554;DHT22;13446;50.926;5.332;2023-04-25T06:53:57;10.80;99.90
25554;DHT22;13446;50.926;5.332;2023-04-25T06:56:22;10.90;99.90
25554;DHT22;13446;50.926;5.332;2023-04-25T06:58:49;10.80;99.90
25554;DHT22;13446;50.926;5.332;2023-04-25T07:01:14;10.60;99.90
25554;DHT22;13446;50.926;5.332;2023-04-25T07:03:40;10.70;99.90
25554;DHT22;13446;50.926;5.332;2023-04-25T07:06:05;10.90;99.90
25554;DHT22;13446;50.926;5.332;2023-04-25T07:08:31;11.00;99.90
25554;DHT22;13446;50.926;5.332;2023-04-25T07:10:56;11.20;99.90
25554;DHT22;13446;50.926;5.332;2023-04-25T07:13:22;11.10;99.90
25554;DHT22;13446;50.926;5.332;2023-04-25T07:15:49;11.30;99.90
25554;DHT22;13446;50.926;5.332;2023-04-25T07:18:14;11.30;99.90
25554;DHT22;13446;50.926;5.332;2023-04-25T07:20:40;11.50;99.90
25554;DHT22;13446;50.926;5.332;2023-04-25T07:23:06;11.50;99.90
25554;DHT22;13446;50.926;5.332;2023-04-25T07:25:31;11.80;99.90
25554;DHT22;13446;50.926;5.332;2023-04-25T07:27:57;12.20;99.90
25554;DHT22;13446;50.926;5.332;2023-04-25T07:30:23;12.60;99.90
25554;DHT22;13446;50.926;5.332;2023-04-25T07:32:49;13.00;99.90
25554;DHT22;13446;50.926;5.332;2023-04-25T07:35:15;13.30;99.90
25554;DHT22;13446;50.926;5.332;2023-04-25T07:37:41;13.40;99.90
25554;DHT22;13446;50.926;5.332;2023-04-25T07:40:07;13.80;99.90
25554;DHT22;13446;50.926;5.332;2023-04-25T07:42:34;14.20;99.90
25554;DHT22;13446;50.926;5.332;2023-04-25T07:45:00;14.60;99.90
25554;DHT22;13446;50.926;5.332;2023-04-25T07:47:26;14.50;99.90
25554;DHT22;13446;50.926;5.332;2023-04-25T07:49:51;14.80;99.90
25554;DHT22;13446;50.926;5.332;2023-04-25T07:52:17;14.40;99.90
25554;DHT22;13446;50.926;5.332;2023-04-25T07:54:43;14.00;99.90
25554;DHT22;13446;50.926;5.332;2023-04-25T07:57:08;13.70;99.90
25554;DHT22;13446;50.926;5.332;2023-04-25T07:59:34;13.80;99.90
25554;DHT22;13446;50.926;5.332;2023-04-25T08:02:00;13.40;99.90
25554;DHT22;13446;50.926;5.332;2023-04-25T08:04:25;13.40;99.90
25554;DHT22;13446;50.926;5.332;2023-04-25T08:06:51;13.30;99.90
25554;DHT22;13446;50.926;5.332;2023-04-25T08:09:19;13.30;99.90
25554;DHT22;13446;50.926;5.332;2023-04-25T08:11:44;13.40;99.90
25554;DHT22;13446;50.926;5.332;2023-04-25T08:14:11;13.40;99.90
25554;DHT22;13446;50.926;5.332;2023-04-25T08:16:36;13.20;99.90
25554;DHT22;13446;50.926;5.332;2023-04-25T08:19:02;13.30;99.90
25554;DHT22;13446;50.926;5.332;2023-04-25T08:21:27;13.40;99.90
25554;DHT22;13446;50.926;5.332;2023-04-25T08:23:53;13.40;99.90
25554;DHT22;13446;50.926;5.332;2023-04-25T08:26:19;13.30;99.90
25554;DHT22;13446;50.926;5.332;2023-04-25T08:28:44;13.70;99.90
25554;DHT22;13446;50.926;5.332;2023-04-25T08:31:10;14.20;99.90
25554;DHT22;13446;50.926;5.332;2023-04-25T08:33:35;14.70;98.90
25554;DHT22;13446;50.926;5.332;2023-04-25T08:36:01;14.70;99.20
25554;DHT22;13446;50.926;5.332;2023-04-25T08:38:27;14.40;97.30
25554;DHT22;13446;50.926;5.332;2023-04-25T08:40:52;14.10;97.40
25554;DHT22;13446;50.926;5.332;2023-04-25T08:43:19;14.00;97.60
25554;DHT22;13446;50.926;5.332;2023-04-25T08:45:45;13.90;98.50
25554;DHT22;13446;50.926;5.332;2023-04-25T08:48:12;13.90;98.90
25554;DHT22;13446;50.926;5.332;2023-04-25T08:50:59;13.60;99.10
25554;DHT22;13446;50.926;5.332;2023-04-25T08:53:29;13.50;98.80
25554;DHT22;13446;50.926;5.332;2023-04-25T08:55:55;13.50;99.40
25554;DHT22;13446;50.926;5.332;2023-04-25T08:58:21;13.30;99.50
25554;DHT22;13446;50.926;5.332;2023-04-25T09:00:47;13.30;99.90
25554;DHT22;13446;50.926;5.332;2023-04-25T09:03:13;13.10;99.90
25554;DHT22;13446;50.926;5.332;2023-04-25T09:05:39;13.10;99.90
25554;DHT22;13446;50.926;5.332;2023-04-25T09:08:05;13.10;99.90
25554;DHT22;13446;50.926;5.332;2023-04-25T09:10:31;13.30;99.90
25554;DHT22;13446;50.926;5.332;2023-04-25T09:13:07;13.70;99.90
25554;DHT22;13446;50.926;5.332;2023-04-25T09:18:22;13.90;99.90
25554;DHT22;13446;50.926;5.332;2023-04-25T09:20:47;14.30;99.90
25554;DHT22;13446;50.926;5.332;2023-04-25T09:23:13;14.20;98.80
25554;DHT22;13446;50.926;5.332;2023-04-25T09:25:39;14.30;99.70
25554;DHT22;13446;50.926;5.332;2023-04-25T09:28:05;15.00;99.60
25554;DHT22;13446;50.926;5.332;2023-04-25T09:30:32;15.20;95.80
25554;DHT22;13446;50.926;5.332;2023-04-25T09:33:08;16.60;94.00
25554;DHT22;13446;50.926;5.332;2023-04-25T09:35:37;18.80;89.60
25554;DHT22;13446;50.926;5.332;2023-04-25T09:38:10;21.20;72.60
25554;DHT22;13446;50.926;5.332;2023-04-25T09:40:42;23.00;64.40
25554;DHT22;13446;50.926;5.332;2023-04-25T09:43:09;23.00;52.80
25554;DHT22;13446;50.926;5.332;2023-04-25T09:45:40;23.80;51.00
25554;DHT22;13446;50.926;5.332;2023-04-25T09:48:06;25.50;49.40
25554;DHT22;13446;50.926;5.332;2023-04-25T09:50:32;26.70;44.20
25554;DHT22;13446;50.926;5.332;2023-04-25T09:53:04;24.90;42.90
25554;DHT22;13446;50.926;5.332;2023-04-25T09:55:32;24.80;42.60
25554;DHT22;13446;50.926;5.332;2023-04-25T09:57:59;26.40;42.90
25554;DHT22;13446;50.926;5.332;2023-04-25T10:00:27;27.80;39.40
25554;DHT22;13446;50.926;5.332;2023-04-25T10:02:52;27.70;37.90
25554;DHT22;13446;50.926;5.332;2023-04-25T10:05:19;26.90;38.00
25554;DHT22;13446;50.926;5.332;2023-04-25T10:07:45;24.50;38.50
25554;DHT22;13446;50.926;5.332;2023-04-25T10:10:12;23.00;40.40
25554;DHT22;13446;50.926;5.332;2023-04-25T10:12:38;20.20;43.00
25554;DHT22;13446;50.926;5.332;2023-04-25T10:15:05;18.60;47.70
25554;DHT22;13446;50.926;5.332;2023-04-25T10:17:33;18.30;50.40
25554;DHT22;13446;50.926;5.332;2023-04-25T10:20:00;18.20;50.60
25554;DHT22;13446;50.926;5.332;2023-04-25T10:22:31;17.90;52.40
25554;DHT22;13446;50.926;5.332;2023-04-25T10:24:58;17.50;52.80
25554;DHT22;13446;50.926;5.332;2023-04-25T10:27:23;17.20;54.20
25554;DHT22;13446;50.926;5.332;2023-04-25T10:30:02;17.40;54.70
25554;DHT22;13446;50.926;5.332;2023-04-25T10:32:32;17.40;54.60
25554;DHT22;13446;50.926;5.332;2023-04-25T10:35:06;16.90;59.00
25554;DHT22;13446;50.926;5.332;2023-04-25T10:37:35;16.20;66.10
25554;DHT22;13446;50.926;5.332;2023-04-25T10:40:07;15.80;71.00
25554;DHT22;13446;50.926;5.332;2023-04-25T10:42:33;15.60;73.50
25554;DHT22;13446;50.926;5.332;2023-04-25T10:45:04;15.10;74.90
25554;DHT22;13446;50.926;5.332;2023-04-25T10:47:36;14.80;75.20
25554;DHT22;13446;50.926;5.332;2023-04-25T10:50:08;15.30;76.20
25554;DHT22;13446;50.926;5.332;2023-04-25T10:52:34;15.40;72.60
25554;DHT22;13446;50.926;5.332;2023-04-25T10:54:59;15.90;73.50
25554;DHT22;13446;50.926;5.332;2023-04-25T10:57:32;15.90;64.90
25554;DHT22;13446;50.926;5.332;2023-04-25T11:02:30;16.70;61.50
25554;DHT22;13446;50.926;5.332;2023-04-25T11:04:56;17.10;60.90
25554;DHT22;13446;50.926;5.332;2023-04-25T11:07:38;17.60;60.10
25554;DHT22;13446;50.926;5.332;2023-04-25T11:10:04;17.90;55.90
25554;DHT22;13446;50.926;5.332;2023-04-25T11:12:31;18.60;53.70
25554;DHT22;13446;50.926;5.332;2023-04-25T11:15:04;18.10;50.60
25554;DHT22;13446;50.926;5.332;2023-04-25T11:17:30;18.30;50.70
25554;DHT22;13446;50.926;5.332;2023-04-25T11:19:55;19.90;48.80
25554;DHT22;13446;50.926;5.332;2023-04-25T11:22:21;21.30;47.70
25554;DHT22;13446;50.926;5.332;2023-04-25T11:24:47;22.50;43.70
25554;DHT22;13446;50.926;5.332;2023-04-25T11:27:13;22.00;41.10
25554;DHT22;13446;50.926;5.332;2023-04-25T11:29:39;21.60;42.10
25554;DHT22;13446;50.926;5.332;2023-04-25T11:32:04;20.80;42.30
25554;DHT22;13446;50.926;5.332;2023-04-25T11:34:31;20.70;44.40
25554;DHT22;13446;50.926;5.332;2023-04-25T11:36:57;23.20;43.40
25554;DHT22;13446;50.926;5.332;2023-04-25T11:39:26;22.90;39.70
25554;DHT22;13446;50.926;5.332;2023-04-25T11:41:52;23.80;39.50
25554;DHT22;13446;50.926;5.332;2023-04-25T11:44:18;25.10;40.30
25554;DHT22;13446;50.926;5.332;2023-04-25T11:46:44;25.70;37.40
25554;DHT22;13446;50.926;5.332;2023-04-25T11:49:09;26.20;36.80
25554;DHT22;13446;50.926;5.332;2023-04-25T11:51:39;26.70;34.50
25554;DHT22;13446;50.926;5.332;2023-04-25T11:54:04;26.30;33.40
25554;DHT22;13446;50.926;5.332;2023-04-25T11:56:30;25.30;34.50
25554;DHT22;13446;50.926;5.332;2023-04-25T11:58:57;25.70;36.00
25554;DHT22;13446;50.926;5.332;2023-04-25T12:01:41;25.80;34.90
25554;DHT22;13446;50.926;5.332;2023-04-25T12:04:14;24.30;34.10
25554;DHT22;13446;50.926;5.332;2023-04-25T12:06:40;24.00;34.00
25554;DHT22;13446;50.926;5.332;2023-04-25T12:09:13;24.40;34.90
25554;DHT22;13446;50.926;5.332;2023-04-25T12:11:46;25.10;35.30
25554;DHT22;13446;50.926;5.332;2023-04-25T12:14:12;24.50;35.90
25554;DHT22;13446;50.926;5.332;2023-04-25T12:16:42;24.70;35.80
25554;DHT22;13446;50.926;5.332;2023-04-25T12:19:07;24.70;36.00
25554;DHT22;13446;50.926;5.332;2023-04-25T12:21:33;23.90;36.90
25554;DHT22;13446;50.926;5.332;2023-04-25T12:24:20;22.90;37.10
25554;DHT22;13446;50.926;5.332;2023-04-25T12:26:50;21.10;39.10
25554;DHT22;13446;50.926;5.332;2023-04-25T12:29:17;19.60;44.70
25554;DHT22;13446;50.926;5.332;2023-04-25T12:31:43;18.90;48.60
25554;DHT22;13446;50.926;5.332;2023-04-25T12:34:09;17.30;51.80
25554;DHT22;13446;50.926;5.332;2023-04-25T12:36:34;17.00;53.90
25554;DHT22;13446;50.926;5.332;2023-04-25T12:39:00;16.40;59.00
25554;DHT22;13446;50.926;5.332;2023-04-25T12:41:30;15.80;63.10
25554;DHT22;13446;50.926;5.332;2023-04-25T12:43:56;15.50;65.70
25554;DHT22;13446;50.926;5.332;2023-04-25T12:46:22;15.20;67.50
25554;DHT22;13446;50.926;5.332;2023-04-25T12:48:48;15.10;68.10
25554;DHT22;13446;50.926;5.332;2023-04-25T12:51:14;15.00;68.40
25554;DHT22;13446;50.926;5.332;2023-04-25T12:53:40;14.60;72.90
25554;DHT22;13446;50.926;5.332;2023-04-25T12:56:08;14.10;75.30
25554;DHT22;13446;50.926;5.332;2023-04-25T12:58:34;14.70;76.70
25554;DHT22;13446;50.926;5.332;2023-04-25T13:00:59;16.00;73.90
25554;DHT22;13446;50.926;5.332;2023-04-25T13:03:25;17.20;65.40
25554;DHT22;13446;50.926;5.332;2023-04-25T13:05:51;18.20;59.40
25554;DHT22;13446;50.926;5.332;2023-04-25T13:08:18;18.20;57.30
25554;DHT22;13446;50.926;5.332;2023-04-25T13:10:43;19.10;55.20
25554;DHT22;13446;50.926;5.332;2023-04-25T13:13:09;20.90;50.70
25554;DHT22;13446;50.926;5.332;2023-04-25T13:15:35;22.10;45.60
25554;DHT22;13446;50.926;5.332;2023-04-25T13:18:00;22.10;45.30
25554;DHT22;13446;50.926;5.332;2023-04-25T13:20:26;20.70;44.90
25554;DHT22;13446;50.926;5.332;2023-04-25T13:22:51;19.80;46.60
25554;DHT22;13446;50.926;5.332;2023-04-25T13:25:17;18.40;49.90
25554;DHT22;13446;50.926;5.332;2023-04-25T13:27:42;17.60;51.40
25554;DHT22;13446;50.926;5.332;2023-04-25T13:30:09;17.20;55.10
25554;DHT22;13446;50.926;5.332;2023-04-25T13:32:35;16.70;58.80
25554;DHT22;13446;50.926;5.332;2023-04-25T13:35:01;16.70;62.50
25554;DHT22;13446;50.926;5.332;2023-04-25T13:37:27;16.00;66.40
25554;DHT22;13446;50.926;5.332;2023-04-25T13:39:54;15.10;72.20
25554;DHT22;13446;50.926;5.332;2023-04-25T13:42:20;14.70;73.80
25554;DHT22;13446;50.926;5.332;2023-04-25T13:44:46;14.90;74.50
25554;DHT22;13446;50.926;5.332;2023-04-25T13:47:11;15.40;71.60
25554;DHT22;13446;50.926;5.332;2023-04-25T13:49:37;15.80;69.40
25554;DHT22;13446;50.926;5.332;2023-04-25T13:52:03;15.50;64.00
25554;DHT22;13446;50.926;5.332;2023-04-25T13:54:28;16.00;67.80
25554;DHT22;13446;50.926;5.332;2023-04-25T13:56:54;16.10;64.80
25554;DHT22;13446;50.926;5.332;2023-04-25T13:59:23;15.90;63.60
25554;DHT22;13446;50.926;5.332;2023-04-25T14:01:49;15.80;64.30
25554;DHT22;13446;50.926;5.332;2023-04-25T14:04:15;15.70;64.10
25554;DHT22;13446;50.926;5.332;2023-04-25T14:06:40;16.00;62.50
25554;DHT22;13446;50.926;5.332;2023-04-25T14:09:06;16.20;59.70
25554;DHT22;13446;50.926;5.332;2023-04-25T14:11:38;16.20;59.70
25554;DHT22;13446;50.926;5.332;2023-04-25T14:14:04;15.90;60.90
25554;DHT22;13446;50.926;5.332;2023-04-25T14:16:30;15.70;62.70
25554;DHT22;13446;50.926;5.332;2023-04-25T14:19:00;15.30;64.20
25554;DHT22;13446;50.926;5.332;2023-04-25T14:21:26;14.90;65.90
25554;DHT22;13446;50.926;5.332;2023-04-25T14:23:52;14.80;66.10
25554;DHT22;13446;50.926;5.332;2023-04-25T14:26:17;14.90;65.30
25554;DHT22;13446;50.926;5.332;2023-04-25T14:28:43;15.00;66.20
25554;DHT22;13446;50.926;5.332;2023-04-25T14:31:09;15.10;67.30
25554;DHT22;13446;50.926;5.332;2023-04-25T14:33:34;15.50;61.60
25554;DHT22;13446;50.926;5.332;2023-04-25T14:36:00;16.10;58.50
25554;DHT22;13446;50.926;5.332;2023-04-25T14:38:26;15.90;58.50
25554;DHT22;13446;50.926;5.332;2023-04-25T14:40:52;15.70;60.30
25554;DHT22;13446;50.926;5.332;2023-04-25T14:43:19;15.70;60.50
25554;DHT22;13446;50.926;5.332;2023-04-25T14:45:44;15.60;60.20
25554;DHT22;13446;50.926;5.332;2023-04-25T14:48:10;15.40;61.40
25554;DHT22;13446;50.926;5.332;2023-04-25T14:50:35;15.30;62.80
25554;DHT22;13446;50.926;5.332;2023-04-25T14:53:01;15.20;63.50
25554;DHT22;13446;50.926;5.332;2023-04-25T14:55:27;15.20;63.30
25554;DHT22;13446;50.926;5.332;2023-04-25T14:57:53;15.30;66.30
25554;DHT22;13446;50.926;5.332;2023-04-25T15:00:19;15.30;64.20
25554;DHT22;13446;50.926;5.332;2023-04-25T15:02:46;15.50;60.90
25554;DHT22;13446;50.926;5.332;2023-04-25T15:05:12;15.70;63.20
25554;DHT22;13446;50.926;5.332;2023-04-25T15:07:38;15.80;62.10
25554;DHT22;13446;50.926;5.332;2023-04-25T15:10:06;15.70;61.70
25554;DHT22;13446;50.926;5.332;2023-04-25T15:12:31;15.30;64.50
25554;DHT22;13446;50.926;5.332;2023-04-25T15:14:57;15.30;63.80
25554;DHT22;13446;50.926;5.332;2023-04-25T15:17:22;15.30;63.30
25554;DHT22;13446;50.926;5.332;2023-04-25T15:19:48;15.20;62.20
25554;DHT22;13446;50.926;5.332;2023-04-25T15:22:13;15.10;64.10
25554;DHT22;13446;50.926;5.332;2023-04-25T15:24:39;15.20;65.20
25554;DHT22;13446;50.926;5.332;2023-04-25T15:27:05;15.20;64.60
25554;DHT22;13446;50.926;5.332;2023-04-25T15:29:31;15.00;64.00
25554;DHT22;13446;50.926;5.332;2023-04-25T15:31:57;14.90;64.10